Drummond, Montana
Current Conditions -  °F | °C
As of 1:53 PM on Friday 19 Dec 2014 (Local Time) from KMSO Reporting Station
Light Rain Light Rain  
Wind Chill: 33°   Ceiling: 3400
Heat Index: 33°   Visibility: 8mi
Dew Point: 29°   Wind: 3mph
Humidity: 85%   Direction: 280°W
Pressure: 29.92"   Gusts: NA
Location:  46.67°N, 113.15°W
Report Text: KMSO 192053Z 28003KT 8SM -RA OVC034 01/M02 A2992 RMK AO2 UPB03E38RAB38 SLP158 P0000 60001 T00061017 56010
Loading
Personal Weather Stations






























Interactive Weather Map New forecast layout! Learn more

10-Day Weather Forecast

Advertisements
Track Severe Weather on mobile